Time;durP1;ratioP1;P1;durP2;ratioP2;P2;SDS_P1;SDS_P2;PMS_P1;PMS_P2;Temp;Humidity;BMP_temperature;BMP_pressure;BME280_temperature;BME280_humidity;BME280_pressure;Samples;Min_cycle;Max_cycle;Signal;HPM_P1;HPM_P2
2022/07/30 00:01:59;;;;;;;8.35;3.00;;;17.90;99.90;;;;;;5012523;28;20666;-67
2022/07/30 00:04:25;;;;;;;5.97;2.75;;;17.90;99.90;;;;;;5012573;28;20193;-67
2022/07/30 00:06:51;;;;;;;6.28;2.90;;;16.10;99.90;;;;;;5012496;28;20170;-68
2022/07/30 00:09:16;;;;;;;9.38;3.22;;;17.90;99.90;;;;;;5012246;28;20526;-68
2022/07/30 00:11:42;;;;;;;5.35;2.92;;;17.90;99.90;;;;;;5012472;28;20194;-68
2022/07/30 00:14:08;;;;;;;6.15;3.00;;;17.80;99.90;;;;;;5012338;28;20269;-67
2022/07/30 00:16:34;;;;;;;6.95;2.83;;;17.80;99.90;;;;;;5012389;28;20166;-68
2022/07/30 00:19:01;;;;;;;6.10;2.95;;;17.80;99.90;;;;;;5012231;28;20191;-68
2022/07/30 00:21:26;;;;;;;4.43;2.70;;;17.80;99.90;;;;;;5012032;28;20218;-66
2022/07/30 00:23:52;;;;;;;10.38;3.05;;;17.90;99.90;;;;;;5011903;28;20193;-65
2022/07/30 00:26:18;;;;;;;7.00;2.90;;;17.90;99.90;;;;;;5012072;28;20185;-68
2022/07/30 00:28:44;;;;;;;8.23;2.97;;;17.90;99.90;;;;;;5011779;28;20175;-66
2022/07/30 00:31:09;;;;;;;4.93;2.95;;;17.90;99.90;;;;;;5012231;28;20197;-67
2022/07/30 00:33:35;;;;;;;9.57;3.58;;;17.90;99.90;;;;;;5012035;28;20621;-67
2022/07/30 00:36:01;;;;;;;7.65;3.33;;;17.80;99.90;;;;;;5011949;28;20171;-67
2022/07/30 00:38:26;;;;;;;8.27;3.17;;;17.80;99.90;;;;;;5011646;28;20245;-66
2022/07/30 00:40:52;;;;;;;9.35;2.95;;;17.80;99.90;;;;;;5011921;28;20181;-66
2022/07/30 00:43:18;;;;;;;4.68;2.60;;;17.80;99.90;;;;;;5011716;28;20206;-67
2022/07/30 00:45:45;;;;;;;9.55;2.95;;;17.70;99.90;;;;;;5011836;28;20171;-66
2022/07/30 00:48:11;;;;;;;6.60;3.08;;;17.70;99.90;;;;;;4993806;28;20677;-66
2022/07/30 00:50:37;;;;;;;10.68;3.38;;;17.70;99.90;;;;;;5011756;28;20233;-66
2022/07/30 00:53:04;;;;;;;7.68;3.65;;;17.70;99.90;;;;;;5011619;28;20167;-66
2022/07/30 00:55:30;;;;;;;8.98;4.00;;;17.60;99.90;;;;;;5011760;28;20183;-70
2022/07/30 00:57:56;;;;;;;8.55;3.53;;;17.60;99.90;;;;;;5011335;28;20214;-68
2022/07/30 01:00:22;;;;;;;13.13;4.40;;;17.60;99.90;;;;;;5011570;28;20772;-58
2022/07/30 01:02:48;;;;;;;10.35;4.05;;;17.50;99.90;;;;;;5011380;28;20179;-58
2022/07/30 01:05:14;;;;;;;9.90;4.20;;;17.60;99.90;;;;;;5011582;28;20261;-58
2022/07/30 01:07:40;;;;;;;10.10;3.85;;;17.50;99.90;;;;;;5009215;28;20252;-57
2022/07/30 01:10:08;;;;;;;10.93;4.70;;;17.50;99.90;;;;;;5000157;28;20633;-58
2022/07/30 01:12:34;;;;;;;11.68;3.70;;;17.50;99.90;;;;;;5011383;28;20249;-58
2022/07/30 01:15:03;;;;;;;8.50;3.95;;;17.50;99.90;;;;;;4999562;28;20609;-58
2022/07/30 01:17:29;;;;;;;11.13;4.28;;;17.60;99.90;;;;;;4991812;28;20313;-58
2022/07/30 01:20:04;;;;;;;9.25;3.90;;;17.60;99.90;;;;;;5011203;28;20661;-58
2022/07/30 01:22:41;;;;;;;10.85;3.70;;;17.60;99.90;;;;;;5011167;28;20225;-58
2022/07/30 01:25:23;;;;;;;7.57;3.83;;;17.60;99.90;;;;;;5011219;28;20205;-58
2022/07/30 01:27:57;;;;;;;8.07;4.20;;;17.60;99.90;;;;;;5010749;28;20198;-58
2022/07/30 01:30:27;;;;;;;9.02;3.90;;;17.70;99.90;;;;;;5010905;28;20174;-59
2022/07/30 01:32:54;;;;;;;8.60;3.95;;;17.60;99.90;;;;;;5011222;28;20170;-59
2022/07/30 01:35:22;;;;;;;6.93;3.60;;;17.50;99.90;;;;;;5011039;28;20182;-58
2022/07/30 01:37:49;;;;;;;9.93;3.97;;;17.50;99.90;;;;;;5010758;28;20264;-57
2022/07/30 01:40:15;;;;;;;9.68;3.92;;;17.50;99.90;;;;;;5011110;28;20281;-58
2022/07/30 01:42:43;;;;;;;8.80;3.35;;;17.40;99.90;;;;;;5011066;28;20171;-58
2022/07/30 01:45:12;;;;;;;8.52;3.97;;;17.40;99.90;;;;;;5011048;28;20652;-58
2022/07/30 01:47:39;;;;;;;12.68;4.32;;;17.30;99.90;;;;;;5010919;28;20217;-57
2022/07/30 01:50:12;;;;;;;10.55;4.40;;;17.30;99.90;;;;;;5010971;28;20228;-57
2022/07/30 01:52:40;;;;;;;10.60;4.65;;;17.30;99.90;;;;;;5011047;28;20178;-58
2022/07/30 01:55:08;;;;;;;9.18;3.60;;;17.20;99.90;;;;;;5011090;28;20202;-57
2022/07/30 01:57:36;;;;;;;7.90;3.92;;;17.20;99.90;;;;;;5010692;28;20222;-57
2022/07/30 02:00:05;;;;;;;10.05;4.00;;;17.20;99.90;;;;;;5010328;28;20693;-58
2022/07/30 02:02:31;;;;;;;6.40;4.30;;;17.10;99.90;;;;;;5011155;28;20178;-57
2022/07/30 02:04:57;;;;;;;11.75;4.20;;;17.00;99.90;;;;;;5010976;28;20174;-57
2022/07/30 02:07:31;;;;;;;5.72;4.00;;;17.00;99.90;;;;;;4993235;28;20175;-57
2022/07/30 02:10:02;;;;;;;8.45;4.03;;;17.00;99.90;;;;;;5010587;28;20170;-57
2022/07/30 02:12:30;;;;;;;8.07;4.00;;;17.00;99.90;;;;;;4993144;28;20246;-58
2022/07/30 02:15:07;;;;;;;11.63;4.32;;;16.90;99.90;;;;;;5011802;28;20228;-58
2022/07/30 02:17:42;;;;;;;9.85;3.92;;;16.80;99.90;;;;;;5014533;28;20197;-59
2022/07/30 02:20:10;;;;;;;9.25;4.47;;;16.80;99.90;;;;;;5014389;28;20264;-57
2022/07/30 02:22:41;;;;;;;9.15;4.75;;;16.60;99.90;;;;;;5014120;28;20226;-57
2022/07/30 02:25:09;;;;;;;8.13;4.78;;;16.60;99.90;;;;;;5014466;28;20178;-57
2022/07/30 02:27:38;;;;;;;18.35;4.60;;;16.60;99.90;;;;;;5014393;28;20667;-58
2022/07/30 02:30:05;;;;;;;11.57;4.30;;;16.60;99.90;;;;;;5013992;28;20245;-57
2022/07/30 02:32:36;;;;;;;6.93;4.72;;;16.60;99.90;;;;;;5014338;28;20182;-67
2022/07/30 02:35:10;;;;;;;9.50;4.80;;;16.70;99.90;;;;;;5014338;28;20213;-57
2022/07/30 02:37:38;;;;;;;7.95;4.60;;;16.70;99.90;;;;;;5014094;28;20237;-57
2022/07/30 02:40:04;;;;;;;8.65;5.35;;;16.60;99.90;;;;;;5013887;28;20253;-56
2022/07/30 02:42:31;;;;;;;9.63;4.72;;;16.60;99.90;;;;;;5014092;28;20179;-56
2022/07/30 02:44:59;;;;;;;14.55;5.32;;;16.60;99.90;;;;;;5014064;28;20170;-57
2022/07/30 02:47:27;;;;;;;9.50;5.20;;;16.50;99.90;;;;;;5013985;28;20213;-57
2022/07/30 02:49:54;;;;;;;15.10;5.13;;;16.40;99.90;;;;;;5013260;28;20244;-56
2022/07/30 02:52:21;;;;;;;9.35;4.75;;;16.40;99.90;;;;;;5013881;28;20163;-57
2022/07/30 02:54:49;;;;;;;8.23;4.78;;;16.40;99.90;;;;;;5013835;28;20727;-57
2022/07/30 02:57:16;;;;;;;10.88;5.13;;;16.40;99.90;;;;;;5013883;28;20269;-57
2022/07/30 02:59:43;;;;;;;7.78;5.20;;;16.40;99.90;;;;;;5013550;28;20178;-57
2022/07/30 03:02:11;;;;;;;15.27;6.10;;;16.40;99.90;;;;;;5013806;28;20606;-57
2022/07/30 03:04:38;;;;;;;14.20;5.70;;;16.40;99.90;;;;;;5013643;28;20214;-56
2022/07/30 03:07:05;;;;;;;9.85;5.57;;;16.40;99.90;;;;;;5013596;28;20217;-57
2022/07/30 03:09:32;;;;;;;8.50;5.45;;;16.40;99.90;;;;;;5013512;28;20190;-57
2022/07/30 03:11:58;;;;;;;10.75;4.97;;;16.40;99.90;;;;;;5013764;28;20201;-57
2022/07/30 03:14:24;;;;;;;11.55;5.13;;;16.50;99.90;;;;;;5013427;28;20182;-56
2022/07/30 03:16:56;;;;;;;11.32;5.25;;;16.30;99.90;;;;;;5013210;28;20182;-56
2022/07/30 03:19:24;;;;;;;10.98;5.85;;;16.40;99.90;;;;;;5013141;28;20183;-56
2022/07/30 03:21:53;;;;;;;6.95;4.97;;;16.40;99.90;;;;;;5013317;28;20214;-57
2022/07/30 03:24:22;;;;;;;8.35;4.55;;;16.30;99.90;;;;;;5013110;28;20202;-57
2022/07/30 03:26:50;;;;;;;10.07;5.05;;;16.40;99.90;;;;;;4995415;28;20715;-57
2022/07/30 03:29:17;;;;;;;13.75;4.90;;;16.40;99.90;;;;;;5013050;28;20182;-57
2022/07/30 03:31:44;;;;;;;11.60;4.95;;;16.40;99.90;;;;;;5013331;28;20652;-57
2022/07/30 03:34:10;;;;;;;10.05;5.63;;;16.40;99.90;;;;;;5013237;28;20683;-57
2022/07/30 03:36:38;;;;;;;8.80;5.30;;;16.40;99.90;;;;;;5012884;28;20171;-57
2022/07/30 03:39:06;;;;;;;7.55;4.85;;;16.40;99.90;;;;;;5012820;28;20257;-58
2022/07/30 03:41:34;;;;;;;9.15;4.50;;;16.40;99.90;;;;;;4999390;28;20194;-58
2022/07/30 03:44:00;;;;;;;11.63;4.30;;;16.40;99.90;;;;;;5013210;28;20285;-57
2022/07/30 03:46:27;;;;;;;8.57;4.40;;;16.40;99.90;;;;;;5012796;28;20229;-57
2022/07/30 03:48:53;;;;;;;10.95;5.00;;;16.40;99.90;;;;;;4994867;28;20540;-57
2022/07/30 03:51:20;;;;;;;10.93;4.60;;;16.30;99.90;;;;;;5012859;28;20162;-57
2022/07/30 03:53:46;;;;;;;8.93;4.45;;;16.20;99.90;;;;;;5012706;28;20167;-57
2022/07/30 03:56:13;;;;;;;9.68;4.43;;;16.20;99.90;;;;;;5012717;28;20249;-57
2022/07/30 03:58:40;;;;;;;13.80;4.63;;;16.20;99.90;;;;;;5012011;28;20218;-57
2022/07/30 04:01:05;;;;;;;10.57;4.57;;;16.20;99.90;;;;;;5012538;28;20506;-57
2022/07/30 04:03:32;;;;;;;7.55;4.55;;;16.20;99.90;;;;;;5012388;28;20186;-57
2022/07/30 04:05:58;;;;;;;5.85;4.18;;;16.20;99.90;;;;;;5012581;28;20265;-57
2022/07/30 04:08:24;;;;;;;5.95;4.40;;;16.20;99.90;;;;;;5012574;28;20167;-57
2022/07/30 04:10:50;;;;;;;13.07;4.68;;;16.20;99.90;;;;;;5012240;28;20683;-57
2022/07/30 04:13:16;;;;;;;7.85;4.30;;;16.30;99.90;;;;;;5011945;28;20170;-57
2022/07/30 04:15:56;;;;;;;8.95;4.40;;;16.40;99.90;;;;;;5012368;28;20228;-56
2022/07/30 04:18:25;;;;;;;4.32;3.80;;;16.40;99.90;;;;;;5012051;28;20222;-56
2022/07/30 04:20:52;;;;;;;6.82;3.47;;;16.50;99.90;;;;;;5012245;28;20182;-57
2022/07/30 04:23:18;;;;;;;6.95;3.67;;;16.60;99.90;;;;;;5011982;28;20578;-57
2022/07/30 04:25:45;;;;;;;8.02;3.88;;;16.60;99.90;;;;;;5012114;28;20576;-57
2022/07/30 04:28:12;;;;;;;10.35;3.97;;;16.50;99.90;;;;;;4994674;28;20629;-56
2022/07/30 04:30:39;;;;;;;9.95;4.45;;;16.60;99.90;;;;;;5012027;28;20221;-56
2022/07/30 04:33:06;;;;;;;7.07;4.47;;;16.60;99.90;;;;;;5011803;28;20174;-57
2022/07/30 04:35:33;;;;;;;9.15;4.28;;;16.60;99.90;;;;;;5011860;28;20182;-57
2022/07/30 04:38:01;;;;;;;9.93;4.47;;;16.70;99.90;;;;;;5011362;28;20237;-57
2022/07/30 04:40:28;;;;;;;10.07;4.25;;;16.70;99.90;;;;;;5011936;28;20171;-57
2022/07/30 04:42:55;;;;;;;11.80;4.57;;;16.70;99.90;;;;;;5011547;28;20186;-56
2022/07/30 04:45:21;;;;;;;9.88;4.57;;;16.70;99.90;;;;;;5012005;28;20170;-57
2022/07/30 04:47:46;;;;;;;8.10;4.78;;;16.70;99.90;;;;;;5011767;28;20185;-57
2022/07/30 04:50:13;;;;;;;8.57;4.35;;;16.70;99.90;;;;;;5011652;28;20190;-57
2022/07/30 04:52:40;;;;;;;9.43;4.57;;;16.70;99.90;;;;;;5011508;28;20166;-56
2022/07/30 04:55:08;;;;;;;10.88;4.97;;;16.70;99.90;;;;;;5011750;28;20178;-57
2022/07/30 04:57:37;;;;;;;9.85;4.45;;;16.80;99.90;;;;;;5011705;28;20210;-57
2022/07/30 05:00:05;;;;;;;7.82;3.95;;;16.80;99.90;;;;;;5011660;28;20178;-58
2022/07/30 05:02:36;;;;;;;6.07;4.20;;;16.90;99.90;;;;;;5011447;28;20178;-57
2022/07/30 05:05:03;;;;;;;10.70;3.85;;;17.00;99.90;;;;;;5011405;28;20194;-56
2022/07/30 05:07:30;;;;;;;5.78;3.28;;;17.10;99.90;;;;;;5011497;28;20171;-56
2022/07/30 05:09:56;;;;;;;8.48;3.42;;;17.20;99.90;;;;;;5011504;28;20233;-56
2022/07/30 05:12:38;;;;;;;7.88;3.58;;;17.30;99.90;;;;;;5011473;28;20182;-57
2022/07/30 05:15:05;;;;;;;5.50;3.13;;;17.40;99.90;;;;;;4991866;28;20179;-57
2022/07/30 05:17:31;;;;;;;5.25;2.83;;;17.40;99.90;;;;;;4991786;28;20237;-57
2022/07/30 05:19:56;;;;;;;12.27;2.92;;;17.50;99.90;;;;;;4991788;28;20171;-57
2022/07/30 05:22:24;;;;;;;5.22;2.72;;;17.50;99.90;;;;;;4991610;28;20221;-57
2022/07/30 05:24:50;;;;;;;9.43;2.85;;;17.60;99.90;;;;;;4991821;28;20637;-56
2022/07/30 05:27:16;;;;;;;4.35;2.50;;;17.60;99.90;;;;;;5011403;28;20233;-57
2022/07/30 05:29:41;;;;;;;4.97;2.80;;;17.70;99.90;;;;;;5010844;28;20261;-57
2022/07/30 05:32:07;;;;;;;5.72;2.67;;;17.60;99.90;;;;;;5011448;28;20663;-57
2022/07/30 05:34:33;;;;;;;8.40;2.80;;;17.70;99.90;;;;;;5011169;28;20178;-57
2022/07/30 05:36:58;;;;;;;4.53;2.25;;;17.70;99.90;;;;;;5011153;28;20629;-57
2022/07/30 05:39:24;;;;;;;7.15;2.50;;;17.70;99.90;;;;;;5010875;28;20178;-56
2022/07/30 05:41:50;;;;;;;4.90;2.60;;;17.80;99.90;;;;;;5011144;28;20253;-57
2022/07/30 05:44:15;;;;;;;6.50;2.53;;;17.90;99.90;;;;;;5011138;28;20183;-57
2022/07/30 05:46:41;;;;;;;7.18;2.50;;;17.90;99.90;;;;;;5010906;28;20167;-57
2022/07/30 05:49:07;;;;;;;15.32;2.80;;;17.90;99.90;;;;;;5012315;28;20170;-57
2022/07/30 05:51:33;;;;;;;8.10;2.75;;;17.90;99.90;;;;;;5015056;28;20183;-57
2022/07/30 05:53:59;;;;;;;5.85;2.90;;;17.90;99.90;;;;;;5015071;28;20170;-57
2022/07/30 05:56:24;;;;;;;5.65;2.60;;;17.90;99.90;;;;;;5015244;28;20179;-57
2022/07/30 05:58:50;;;;;;;8.13;2.53;;;17.90;99.90;;;;;;5014470;28;20719;-57
2022/07/30 06:01:16;;;;;;;4.75;2.60;;;17.90;99.90;;;;;;5014672;28;20224;-57
2022/07/30 06:03:41;;;;;;;9.77;2.47;;;17.90;99.90;;;;;;5014930;28;20178;-57
2022/07/30 06:06:07;;;;;;;8.15;2.83;;;17.80;99.90;;;;;;5014942;28;20175;-57
2022/07/30 06:08:34;;;;;;;4.40;2.10;;;17.90;99.90;;;;;;5014486;28;20175;-57
2022/07/30 06:10:59;;;;;;;10.70;2.60;;;18.00;99.90;;;;;;5012067;28;20270;-68
2022/07/30 06:13:25;;;;;;;3.30;2.20;;;20.10;99.90;;;;;;5005861;28;20198;-64
2022/07/30 06:15:51;;;;;;;6.93;2.35;;;17.90;99.90;;;;;;4995075;28;20238;-64
2022/07/30 06:18:17;;;;;;;5.80;2.55;;;17.90;99.90;;;;;;5009544;28;20217;-62
2022/07/30 06:20:43;;;;;;;4.57;1.98;;;17.90;99.90;;;;;;5013804;28;20183;-64
2022/07/30 06:23:08;;;;;;;8.75;2.10;;;17.90;99.90;;;;;;5014308;28;20236;-63
2022/07/30 06:25:34;;;;;;;4.00;1.95;;;17.80;99.90;;;;;;5014335;28;20171;-63
2022/07/30 06:28:00;;;;;;;6.68;1.73;;;17.80;99.90;;;;;;5017637;28;20181;-62
2022/07/30 06:30:27;;;;;;;6.25;1.70;;;17.80;99.90;;;;;;5014022;28;20182;-63
2022/07/30 06:32:53;;;;;;;6.18;1.77;;;17.80;99.90;;;;;;5014203;28;20179;-63
2022/07/30 06:35:19;;;;;;;4.13;1.80;;;17.90;99.90;;;;;;5014334;28;20217;-60
2022/07/30 06:37:45;;;;;;;4.43;1.83;;;17.90;99.90;;;;;;5014268;28;20214;-62
2022/07/30 06:40:11;;;;;;;4.25;1.90;;;17.90;99.90;;;;;;5014295;28;20638;-61
2022/07/30 06:42:37;;;;;;;7.68;1.60;;;18.00;99.90;;;;;;5013675;28;20189;-62
2022/07/30 06:45:03;;;;;;;3.58;1.40;;;18.00;99.90;;;;;;5014059;28;20167;-62
2022/07/30 06:47:30;;;;;;;6.13;1.80;;;18.00;99.90;;;;;;5013977;28;20181;-61
2022/07/30 06:49:56;;;;;;;5.85;1.58;;;18.10;99.90;;;;;;5014013;28;20277;-62
2022/07/30 06:52:22;;;;;;;3.33;2.00;;;18.10;99.90;;;;;;5013640;28;20253;-61
2022/07/30 06:54:48;;;;;;;8.93;1.50;;;18.20;99.90;;;;;;5013748;28;20179;-62
2022/07/30 06:57:15;;;;;;;3.45;1.60;;;18.10;99.90;;;;;;5013777;28;20680;-63
2022/07/30 06:59:41;;;;;;;6.10;1.80;;;18.10;99.90;;;;;;5013927;28;20190;-60
2022/07/30 07:02:07;;;;;;;2.97;1.75;;;18.10;99.90;;;;;;5013047;28;20175;-81
2022/07/30 07:04:33;;;;;;;5.55;1.90;;;18.10;99.90;;;;;;5014351;28;20182;-77
2022/07/30 07:06:58;;;;;;;2.80;1.48;;;18.00;99.90;;;;;;5014364;28;20165;-75
2022/07/30 07:09:24;;;;;;;3.17;1.52;;;18.00;99.90;;;;;;5014041;28;20248;-80
2022/07/30 07:11:50;;;;;;;2.95;1.55;;;18.00;99.90;;;;;;5008597;28;20179;-79
2022/07/30 07:14:16;;;;;;;5.60;1.80;;;18.00;99.90;;;;;;5010645;28;20175;-81
2022/07/30 07:16:42;;;;;;;3.30;1.88;;;18.00;99.90;;;;;;5014001;28;20171;-81
2022/07/30 07:19:08;;;;;;;3.90;1.70;;;18.00;99.90;;;;;;5013942;28;20752;-81
2022/07/30 07:21:34;;;;;;;4.15;1.88;;;18.10;99.90;;;;;;5012251;28;20222;-81
2022/07/30 07:24:01;;;;;;;4.43;2.00;;;18.10;99.90;;;;;;5013682;28;20194;-82
2022/07/30 07:26:27;;;;;;;5.72;1.70;;;18.20;99.90;;;;;;5014048;28;20182;-82
2022/07/30 07:28:53;;;;;;;4.13;1.70;;;18.20;99.90;;;;;;5013627;28;20171;-78
2022/07/30 07:31:19;;;;;;;5.15;1.70;;;18.20;99.90;;;;;;5013500;28;20621;-82
2022/07/30 07:33:46;;;;;;;8.88;1.90;;;18.10;99.90;;;;;;5013649;28;20182;-81
2022/07/30 07:36:13;;;;;;;3.22;1.90;;;18.10;99.90;;;;;;5014098;28;20194;-80
2022/07/30 07:38:38;;;;;;;4.13;1.75;;;17.70;99.90;;;;;;5013613;28;20210;-78
2022/07/30 07:41:04;;;;;;;3.67;1.60;;;18.00;99.90;;;;;;5012068;28;20175;-81
2022/07/30 07:43:31;;;;;;;2.88;1.30;;;18.00;99.90;;;;;;5013361;28;20273;-82
2022/07/30 07:45:57;;;;;;;5.55;1.50;;;18.00;99.90;;;;;;4995683;28;20172;-81
2022/07/30 07:48:23;;;;;;;3.72;1.80;;;18.00;99.90;;;;;;4994117;28;20187;-77
2022/07/30 07:50:48;;;;;;;3.83;1.73;;;17.90;99.90;;;;;;4993801;28;20705;-78
2022/07/30 07:53:14;;;;;;;1.63;1.30;;;17.90;99.90;;;;;;4993930;28;20179;-76
2022/07/30 07:55:40;;;;;;;4.55;1.70;;;17.90;99.90;;;;;;4993147;28;20175;-75
2022/07/30 07:58:06;;;;;;;6.32;2.00;;;17.90;99.90;;;;;;4993337;28;20203;-72
2022/07/30 08:00:32;;;;;;;7.10;1.80;;;17.90;99.90;;;;;;4993190;28;20175;-74
2022/07/30 08:02:58;;;;;;;6.22;2.10;;;18.00;99.90;;;;;;4993238;28;20187;-71
2022/07/30 08:05:24;;;;;;;8.20;2.10;;;18.10;99.90;;;;;;4992973;28;20584;-75
2022/07/30 08:07:49;;;;;;;10.00;1.65;;;18.10;99.90;;;;;;4993307;28;20586;-74
2022/07/30 08:10:15;;;;;;;4.28;1.60;;;18.30;99.90;;;;;;4993295;28;20171;-72
2022/07/30 08:12:41;;;;;;;7.28;1.85;;;18.40;99.90;;;;;;4992256;28;20307;-76
2022/07/30 08:15:10;;;;;;;3.70;1.48;;;18.40;99.90;;;;;;5000065;28;20190;-76
2022/07/30 08:17:40;;;;;;;3.75;1.65;;;18.60;99.90;;;;;;5012762;28;20238;-79
2022/07/30 08:20:07;;;;;;;5.90;2.00;;;19.10;99.90;;;;;;5002227;28;20175;-82
2022/07/30 08:22:33;;;;;;;2.15;1.55;;;19.00;99.90;;;;;;4989372;28;20315;-80
2022/07/30 08:24:59;;;;;;;4.05;1.70;;;19.20;99.90;;;;;;5012739;28;20268;-77
2022/07/30 08:27:25;;;;;;;5.15;1.52;;;19.60;99.90;;;;;;5012518;28;20178;-81
2022/07/30 08:29:51;;;;;;;7.35;1.20;;;19.80;99.90;;;;;;5012709;28;20185;-79
2022/07/30 08:32:17;;;;;;;4.18;1.83;;;19.90;99.90;;;;;;4981077;28;20259;-79
2022/07/30 08:34:49;;;;;;;4.07;1.63;;;19.90;99.90;;;;;;5069254;27;20547;-73
2022/07/30 08:37:15;;;;;;;6.75;1.73;;;19.90;99.90;;;;;;5052204;28;20180;-72
2022/07/30 08:39:41;;;;;;;3.67;1.50;;;19.70;99.90;;;;;;5048359;28;20636;-73
2022/07/30 08:42:07;;;;;;;4.90;1.55;;;19.70;99.90;;;;;;5049683;28;20690;-72
2022/07/30 08:44:35;;;;;;;5.38;1.65;;;19.80;99.90;;;;;;5048145;28;20217;-72
2022/07/30 08:47:02;;;;;;;2.92;1.27;;;19.80;99.90;;;;;;5048195;28;20193;-72
2022/07/30 08:49:28;;;;;;;3.17;1.23;;;20.10;99.90;;;;;;5056115;28;20177;-61
2022/07/30 08:51:54;;;;;;;3.60;1.25;;;20.10;99.90;;;;;;5052087;28;20184;-63
2022/07/30 08:54:20;;;;;;;3.05;0.95;;;20.10;99.90;;;;;;5047966;28;20173;-63
2022/07/30 08:56:49;;;;;;;3.22;1.30;;;20.10;99.90;;;;;;5046476;28;20199;-64
2022/07/30 08:59:16;;;;;;;1.98;1.25;;;20.20;99.90;;;;;;5047850;28;20180;-66
2022/07/30 09:01:42;;;;;;;3.03;1.00;;;20.10;99.90;;;;;;5047719;28;20177;-64
2022/07/30 09:04:08;;;;;;;2.88;1.02;;;20.00;99.90;;;;;;5047901;28;20307;-72
2022/07/30 09:06:35;;;;;;;2.78;1.17;;;19.90;99.90;;;;;;5047893;28;20166;-72
2022/07/30 09:09:01;;;;;;;1.98;1.00;;;19.90;99.90;;;;;;5062656;28;20234;-71
2022/07/30 09:11:27;;;;;;;1.42;1.00;;;19.90;99.90;;;;;;5054818;28;20174;-72
2022/07/30 09:13:53;;;;;;;1.90;1.10;;;19.90;99.90;;;;;;5047813;28;20182;-72
2022/07/30 09:16:21;;;;;;;1.98;1.00;;;20.20;99.90;;;;;;5047513;28;20169;-72
2022/07/30 09:18:48;;;;;;;1.50;1.10;;;20.10;99.90;;;;;;5053312;28;20172;-72
2022/07/30 09:21:20;;;;;;;3.13;1.58;;;20.40;99.90;;;;;;5053182;28;20235;-72
2022/07/30 09:24:04;;;;;;;2.38;1.00;;;20.40;99.90;;;;;;5047083;28;20227;-71
2022/07/30 09:26:34;;;;;;;2.28;1.20;;;20.30;99.90;;;;;;5047061;28;20178;-71
2022/07/30 09:29:20;;;;;;;1.10;1.00;;;20.10;99.90;;;;;;5060934;28;20181;-72
2022/07/30 09:32:03;;;;;;;4.03;1.23;;;19.90;99.90;;;;;;5068830;28;20275;-73
2022/07/30 09:34:32;;;;;;;2.65;1.10;;;19.90;99.90;;;;;;5073913;28;20321;-73
2022/07/30 09:37:04;;;;;;;1.50;1.40;;;19.90;99.90;;;;;;5076569;28;20180;-74
2022/07/30 09:39:34;;;;;;;3.35;1.38;;;20.10;99.90;;;;;;5069478;28;20639;-61
2022/07/30 09:42:02;;;;;;;3.55;1.48;;;20.00;99.90;;;;;;5047031;28;20177;-62
2022/07/30 09:44:29;;;;;;;1.77;0.95;;;20.10;99.90;;;;;;5043280;28;20209;-63
2022/07/30 09:46:56;;;;;;;1.73;1.17;;;20.10;99.90;;;;;;5033682;28;20256;-59
2022/07/30 09:49:24;;;;;;;3.97;1.27;;;20.40;99.90;;;;;;5033653;28;20567;-61
2022/07/30 09:51:51;;;;;;;1.83;1.00;;;20.30;99.90;;;;;;5036763;28;20178;-59
2022/07/30 09:54:17;;;;;;;2.50;1.15;;;20.50;99.90;;;;;;5053677;28;20169;-59
2022/07/30 09:56:45;;;;;;;2.47;1.20;;;20.40;99.90;;;;;;5053330;28;20181;-59
2022/07/30 09:59:28;;;;;;;3.28;1.00;;;20.60;99.90;;;;;;5049870;28;20177;-61
2022/07/30 10:01:55;;;;;;;1.25;0.90;;;20.70;99.90;;;;;;5033566;28;20173;-73
2022/07/30 10:04:30;;;;;;;1.50;0.60;;;20.80;99.90;;;;;;5051451;28;20216;-74
2022/07/30 10:06:57;;;;;;;1.42;0.60;;;20.80;99.90;;;;;;5049981;28;20177;-73
2022/07/30 10:09:31;;;;;;;2.10;0.68;;;20.60;99.90;;;;;;5040438;28;20656;-73
2022/07/30 10:12:01;;;;;;;1.60;0.80;;;20.50;99.90;;;;;;5052297;28;20244;-74
2022/07/30 10:14:35;;;;;;;1.75;0.80;;;20.50;99.90;;;;;;5033406;28;20256;-73
2022/07/30 10:17:02;;;;;;;2.20;0.90;;;20.40;99.90;;;;;;5033370;28;20252;-72
2022/07/30 10:19:28;;;;;;;2.22;0.70;;;20.30;99.90;;;;;;5038184;28;20196;-73
2022/07/30 10:21:57;;;;;;;0.65;0.50;;;20.50;99.90;;;;;;5045808;28;20177;-73
2022/07/30 10:24:24;;;;;;;1.67;0.70;;;20.60;99.90;;;;;;5035880;28;20699;-72
2022/07/30 10:26:52;;;;;;;1.27;0.68;;;20.60;99.90;;;;;;5042959;28;20177;-72
2022/07/30 10:29:18;;;;;;;2.42;0.80;;;20.50;99.90;;;;;;5052795;28;20181;-58
2022/07/30 10:31:46;;;;;;;2.03;1.00;;;20.40;99.90;;;;;;5047752;28;20173;-58
2022/07/30 10:34:13;;;;;;;1.25;0.95;;;20.00;99.90;;;;;;5051365;28;20774;-58
2022/07/30 10:36:42;;;;;;;1.35;1.08;;;19.70;99.90;;;;;;5042571;28;20219;-58
2022/07/30 10:39:12;;;;;;;1.25;1.13;;;19.60;99.90;;;;;;5052996;28;20238;-58
2022/07/30 10:41:56;;;;;;;1.52;1.23;;;19.70;99.90;;;;;;5052630;28;20201;-58
2022/07/30 10:44:46;;;;;;;1.65;1.10;;;20.00;99.90;;;;;;5052540;28;20698;-58
2022/07/30 10:47:17;;;;;;;2.35;1.05;;;20.30;99.90;;;;;;5052364;28;20247;-58
2022/07/30 10:50:02;;;;;;;2.10;1.00;;;20.40;99.90;;;;;;5052576;28;20219;-58
2022/07/30 10:52:54;;;;;;;3.90;1.30;;;20.30;99.90;;;;;;5052430;28;20177;-59
2022/07/30 10:55:30;;;;;;;2.08;0.90;;;20.30;99.90;;;;;;5050416;28;20165;-59
2022/07/30 10:58:06;;;;;;;1.65;0.77;;;20.70;99.90;;;;;;5051452;28;20176;-59
2022/07/30 11:00:36;;;;;;;1.98;0.70;;;22.10;99.90;;;;;;5052243;28;20175;-58
2022/07/30 11:03:22;;;;;;;2.08;0.70;;;22.00;99.90;;;;;;5052268;28;20200;-59
2022/07/30 11:05:50;;;;;;;3.85;0.70;;;22.50;99.90;;;;;;5039989;28;20173;-58
2022/07/30 11:08:37;;;;;;;0.82;0.50;;;22.80;99.90;;;;;;5032324;28;20170;-59
2022/07/30 11:11:26;;;;;;;1.42;0.80;;;23.00;99.90;;;;;;5032099;28;20177;-59
2022/07/30 11:14:01;;;;;;;3.47;0.85;;;23.10;99.90;;;;;;5049317;28;20173;-56
2022/07/30 11:16:32;;;;;;;3.03;0.63;;;22.80;99.90;;;;;;5053621;28;20173;-58
2022/07/30 11:19:16;;;;;;;2.17;0.60;;;22.90;99.90;;;;;;5032004;28;20162;-58
2022/07/30 11:21:43;;;;;;;4.35;0.60;;;23.00;99.90;;;;;;5048172;28;20205;-57
2022/07/30 11:24:55;;;;;;;3.28;0.60;;;23.30;99.90;;;;;;5033351;28;20213;-58
2022/07/30 11:27:41;;;;;;;3.58;0.73;;;21.90;99.90;;;;;;5038763;28;20647;-58
2022/07/30 11:30:15;;;;;;;2.50;0.70;;;21.90;99.90;;;;;;5051756;28;20182;-57
2022/07/30 11:32:43;;;;;;;3.78;0.85;;;21.50;99.90;;;;;;5051381;28;20165;-57
2022/07/30 11:35:20;;;;;;;4.85;0.90;;;21.30;99.90;;;;;;5051559;28;20169;-57
2022/07/30 11:38:18;;;;;;;3.33;0.90;;;21.50;99.90;;;;;;5040760;28;20189;-57
2022/07/30 11:40:49;;;;;;;3.33;1.15;;;21.50;99.90;;;;;;5031508;28;20170;-58
2022/07/30 11:43:16;;;;;;;3.08;0.60;;;21.40;99.90;;;;;;5031335;28;20248;-58
2022/07/30 11:45:42;;;;;;;2.33;0.85;;;21.70;99.90;;;;;;5031628;28;20255;-58
2022/07/30 11:48:13;;;;;;;3.58;0.75;;;22.10;99.90;;;;;;5031636;28;20513;-59
2022/07/30 11:50:40;;;;;;;4.38;1.25;;;22.50;99.90;;;;;;5049948;28;20208;-58
2022/07/30 11:53:08;;;;;;;4.10;0.50;;;22.70;99.90;;;;;;5051315;28;20264;-58
2022/07/30 11:55:35;;;;;;;2.33;0.70;;;22.40;99.90;;;;;;5051134;28;20170;-57
2022/07/30 11:58:04;;;;;;;5.45;0.88;;;22.20;99.90;;;;;;5050922;28;20184;-58
2022/07/30 12:00:35;;;;;;;0.85;0.35;;;22.40;99.90;;;;;;5051082;28;20184;-58
2022/07/30 12:03:10;;;;;;;3.47;0.60;;;22.80;99.90;;;;;;5045597;28;20213;-58
2022/07/30 12:05:37;;;;;;;4.88;1.00;;;22.80;99.90;;;;;;5031084;28;20169;-58
2022/07/30 12:08:04;;;;;;;2.40;0.50;;;22.90;99.90;;;;;;5030913;28;20663;-58
2022/07/30 12:10:30;;;;;;;3.28;0.73;;;22.50;99.90;;;;;;5031109;28;20548;-58
2022/07/30 12:13:14;;;;;;;3.25;0.75;;;22.30;99.90;;;;;;5046082;28;20181;-58
2022/07/30 12:15:49;;;;;;;2.50;0.50;;;22.50;99.90;;;;;;5050776;28;20177;-57
2022/07/30 12:18:29;;;;;;;2.47;0.80;;;22.40;99.90;;;;;;5050852;28;20286;-58
2022/07/30 12:20:58;;;;;;;1.42;0.60;;;22.10;99.90;;;;;;5046562;28;20675;-58
2022/07/30 12:23:25;;;;;;;4.45;0.75;;;22.30;99.90;;;;;;5050825;28;20213;-58
2022/07/30 12:25:51;;;;;;;2.45;0.65;;;22.50;99.90;;;;;;5050893;28;20229;-58
2022/07/30 12:28:25;;;;;;;2.25;0.80;;;22.60;99.90;;;;;;5050942;28;20181;-58
2022/07/30 12:30:52;;;;;;;2.80;1.02;;;22.70;99.90;;;;;;5048570;28;20211;-57
2022/07/30 12:33:19;;;;;;;1.60;0.80;;;22.60;99.90;;;;;;5031025;28;20220;-57
2022/07/30 12:35:48;;;;;;;1.65;0.80;;;22.60;99.90;;;;;;5039554;28;20174;-57
2022/07/30 12:38:15;;;;;;;2.10;0.77;;;22.80;99.90;;;;;;5030880;28;20644;-59
2022/07/30 12:40:51;;;;;;;2.03;0.63;;;23.00;99.90;;;;;;5030862;28;20247;-59
2022/07/30 12:43:17;;;;;;;1.15;0.75;;;23.30;99.90;;;;;;5030795;28;20233;-58
2022/07/30 12:45:43;;;;;;;1.77;0.80;;;23.60;99.90;;;;;;5030863;28;20269;-58
2022/07/30 12:48:09;;;;;;;1.20;0.80;;;24.00;99.90;;;;;;5030759;28;20244;-58
2022/07/30 12:50:35;;;;;;;1.75;1.13;;;24.00;99.90;;;;;;5030861;28;20181;-59
2022/07/30 12:53:01;;;;;;;1.20;1.10;;;;;;;;;;5047431;28;20174;-58